Terminal Aerodrome Forecast
Issued by NWS Cleveland, OH

Home | Current Version | Previous Version | Text Only | Print | Product List | Glossary Off
Versions: 1 2 3 4 5 6 7 8 9 10 11 12 13 14 15 16 17 18 19 20

000
FTUS41 KCLE 272300
TAFMFD
TAF
KMFD 272320Z 2800/2824 35007KT P6SM SCT020
     FM280200 02004KT P6SM SCT250
     FM280600 02004KT 6SM BR BKN250
      TEMPO 2809/2813 2SM BR
     FM281400 02006KT P6SM SCT250=

USA.gov is the U.S. government's official web portal to all federal, state and local government web resources and services.